Time,TemperatureF,DewpointF,PressureIn,WindDirection,WindDirectionDegrees,WindSpeedMPH,WindSpeedGustMPH,Humidity,HourlyPrecipIn,Conditions,Clouds,dailyrainin,SoftwareType,DateUTC
2013-11-15 00:00:00,32.3,22.9,30.13,SSE,163,1.0,1.0,68,0.00,,---,0.00,VWS V14.01,2013-11-15 05:00:00,
2013-11-15 00:05:00,32.2,22.8,30.13,SSE,163,0.0,0.0,68,0.00,,---,0.00,VWS V14.01,2013-11-15 05:05:00,
2013-11-15 00:10:00,32.1,22.8,30.13,SSE,163,0.0,0.0,68,0.00,,---,0.00,VWS V14.01,2013-11-15 05:10:00,
2013-11-15 00:15:00,32.0,23.0,30.13,SSE,163,0.0,0.0,69,0.00,,---,0.00,VWS V14.01,2013-11-15 05:15:00,
2013-11-15 00:20:00,31.8,22.8,30.13,SSE,163,0.0,0.0,69,0.00,,---,0.00,VWS V14.01,2013-11-15 05:20:00,
2013-11-15 00:25:00,31.6,22.6,30.13,SSE,163,0.0,1.0,69,0.00,,---,0.00,VWS V14.01,2013-11-15 05:25:00,
2013-11-15 00:30:00,31.5,22.5,30.13,SSE,163,0.0,0.0,69,0.00,,---,0.00,VWS V14.01,2013-11-15 05:30:00,
2013-11-15 00:35:00,31.3,22.7,30.13,SSE,163,0.0,0.0,70,0.00,,---,0.00,VWS V14.01,2013-11-15 05:35:00,
2013-11-15 00:40:00,31.2,22.6,30.13,SSE,163,0.0,1.0,70,0.00,,---,0.00,VWS V14.01,2013-11-15 05:40:00,
2013-11-15 00:45:00,31.0,22.4,30.13,SSE,163,0.0,0.0,70,0.00,,---,0.00,VWS V14.01,2013-11-15 05:45:00,
2013-11-15 00:50:00,30.9,22.3,30.13,SSE,163,0.0,0.0,70,0.00,,---,0.00,VWS V14.01,2013-11-15 05:50:00,
2013-11-15 00:55:00,30.7,22.1,30.13,SSE,163,0.0,1.0,70,0.00,,---,0.00,VWS V14.01,2013-11-15 05:55:00,
2013-11-15 01:00:00,30.6,22.3,30.13,SSE,163,0.0,1.0,71,0.00,,---,0.00,VWS V14.01,2013-11-15 06:00:00,
2013-11-15 01:05:00,30.7,22.1,30.13,SSE,163,0.0,1.0,70,0.00,,---,0.00,VWS V14.01,2013-11-15 06:05:00,
2013-11-15 01:10:00,30.9,22.3,30.13,SSE,163,0.0,1.0,70,0.00,,---,0.00,VWS V14.01,2013-11-15 06:10:00,
2013-11-15 01:15:00,30.9,22.3,30.13,SSE,163,0.0,0.0,70,0.00,,---,0.00,VWS V14.01,2013-11-15 06:15:00,
2013-11-15 01:20:00,31.0,21.7,30.13,SSE,163,0.0,1.0,68,0.00,,---,0.00,VWS V14.01,2013-11-15 06:20:00,
2013-11-15 01:25:00,31.4,21.7,30.13,West,259,0.0,2.0,67,0.00,,---,0.00,VWS V14.01,2013-11-15 06:25:00,
2013-11-15 01:30:00,31.8,21.0,30.13,SW,223,0.0,4.0,64,0.00,,---,0.00,VWS V14.01,2013-11-15 06:30:00,
2013-11-15 01:35:00,32.1,22.0,30.13,SW,223,0.0,0.0,66,0.00,,---,0.00,VWS V14.01,2013-11-15 06:35:00,
2013-11-15 01:40:00,32.4,21.6,30.13,SSE,154,0.0,1.0,64,0.00,,---,0.00,VWS V14.01,2013-11-15 06:40:00,
2013-11-15 01:45:00,32.5,21.7,30.13,SSE,154,0.0,2.0,64,0.00,,---,0.00,VWS V14.01,2013-11-15 06:45:00,
2013-11-15 01:50:00,32.4,21.6,30.14,SSE,154,1.0,2.0,64,0.00,,---,0.00,VWS V14.01,2013-11-15 06:50:00,
2013-11-15 01:55:00,32.3,21.9,30.14,SSE,154,0.0,1.0,65,0.00,,---,0.00,VWS V14.01,2013-11-15 06:55:00,
2013-11-15 02:00:00,32.3,21.5,30.14,SSE,154,0.0,2.0,64,0.00,,---,0.00,VWS V14.01,2013-11-15 07:00:00,
2013-11-15 02:05:00,32.6,21.8,30.14,East,82,1.0,1.0,64,0.00,,---,0.00,VWS V14.01,2013-11-15 07:05:00,
2013-11-15 02:10:00,33.0,21.0,30.14,SSW,197,0.0,3.0,61,0.00,,---,0.00,VWS V14.01,2013-11-15 07:10:00,
2013-11-15 02:15:00,33.6,20.8,30.14,SSW,199,0.0,1.0,59,0.00,,---,0.00,VWS V14.01,2013-11-15 07:15:00,
2013-11-15 02:25:00,34.4,19.9,30.15,WSW,242,0.0,1.0,55,0.00,,---,0.00,VWS V14.01,2013-11-15 07:25:00,
2013-11-15 02:30:00,35.0,20.5,30.15,WNW,302,0.0,2.0,55,0.00,,---,0.00,VWS V14.01,2013-11-15 07:30:00,
2013-11-15 02:35:00,35.5,19.6,30.15,NE,46,0.0,3.0,52,0.00,,---,0.00,VWS V14.01,2013-11-15 07:35:00,
2013-11-15 02:40:00,36.1,20.6,30.15,ENE,62,0.0,1.0,53,0.00,,---,0.00,VWS V14.01,2013-11-15 07:40:00,
2013-11-15 02:45:00,36.3,20.8,30.15,NNW,348,0.0,2.0,53,0.00,,---,0.00,VWS V14.01,2013-11-15 07:45:00,
2013-11-15 02:50:00,36.1,21.1,30.15,WNW,283,0.0,2.0,54,0.00,,---,0.00,VWS V14.01,2013-11-15 07:50:00,
2013-11-15 02:55:00,35.9,20.0,30.15,NW,324,0.0,2.0,52,0.00,,---,0.00,VWS V14.01,2013-11-15 07:55:00,
2013-11-15 03:00:00,35.7,20.3,30.15,NW,323,0.0,1.0,53,0.00,,---,0.00,VWS V14.01,2013-11-15 08:00:00,
2013-11-15 03:05:00,35.7,20.3,30.15,WNW,292,0.0,1.0,53,0.00,,---,0.00,VWS V14.01,2013-11-15 08:05:00,
2013-11-15 03:10:00,35.7,19.8,30.15,West,272,1.0,2.0,52,0.00,,---,0.00,VWS V14.01,2013-11-15 08:10:00,
2013-11-15 03:15:00,35.7,20.7,30.15,West,272,0.0,1.0,54,0.00,,---,0.00,VWS V14.01,2013-11-15 08:15:00,
2013-11-15 03:20:00,35.5,20.5,30.15,SW,233,0.0,2.0,54,0.00,,---,0.00,VWS V14.01,2013-11-15 08:20:00,
2013-11-15 03:25:00,35.2,20.2,30.16,SW,233,0.0,2.0,54,0.00,,---,0.00,VWS V14.01,2013-11-15 08:25:00,
2013-11-15 03:30:00,35.3,19.9,30.16,ENE,68,2.0,3.0,53,0.00,,---,0.00,VWS V14.01,2013-11-15 08:30:00,
2013-11-15 03:35:00,35.5,20.5,30.16,South,188,0.0,2.0,54,0.00,,---,0.00,VWS V14.01,2013-11-15 08:35:00,
2013-11-15 03:40:00,35.2,20.7,30.16,South,188,0.0,2.0,55,0.00,,---,0.00,VWS V14.01,2013-11-15 08:40:00,
2013-11-15 03:50:00,35.0,20.0,30.16,WNW,294,0.0,3.0,54,0.00,,---,0.00,VWS V14.01,2013-11-15 08:50:00,
2013-11-15 03:55:00,35.0,20.0,30.16,WNW,294,0.0,1.0,54,0.00,,---,0.00,VWS V14.01,2013-11-15 08:55:00,
2013-11-15 04:00:00,34.7,20.2,30.16,WNW,294,1.0,1.0,55,0.00,,---,0.00,VWS V14.01,2013-11-15 09:00:00,
2013-11-15 04:05:00,34.3,20.2,30.17,WNW,294,0.0,1.0,56,0.00,,---,0.00,VWS V14.01,2013-11-15 09:05:00,
2013-11-15 04:10:00,34.1,20.5,30.17,WNW,294,0.0,2.0,57,0.00,,---,0.00,VWS V14.01,2013-11-15 09:10:00,
2013-11-15 04:15:00,33.7,20.9,30.17,WNW,294,0.0,2.0,59,0.00,,---,0.00,VWS V14.01,2013-11-15 09:15:00,
2013-11-15 04:20:00,33.4,21.0,30.17,WNW,294,0.0,0.0,60,0.00,,---,0.00,VWS V14.01,2013-11-15 09:20:00,
2013-11-15 04:25:00,33.0,20.6,30.17,WNW,294,0.0,0.0,60,0.00,,---,0.00,VWS V14.01,2013-11-15 09:25:00,
2013-11-15 04:30:00,32.8,20.9,30.17,WNW,294,0.0,1.0,61,0.00,,---,0.00,VWS V14.01,2013-11-15 09:30:00,
2013-11-15 04:35:00,32.5,20.9,30.18,WNW,294,0.0,0.0,62,0.00,,---,0.00,VWS V14.01,2013-11-15 09:35:00,
2013-11-15 04:40:00,32.2,20.7,30.17,WNW,294,0.0,0.0,62,0.00,,---,0.00,VWS V14.01,2013-11-15 09:40:00,
2013-11-15 04:45:00,32.0,20.9,30.17,WNW,294,0.0,0.0,63,0.00,,---,0.00,VWS V14.01,2013-11-15 09:45:00,
2013-11-15 04:50:00,31.9,20.8,30.17,SW,232,0.0,1.0,63,0.00,,---,0.00,VWS V14.01,2013-11-15 09:50:00,
2013-11-15 04:55:00,31.8,20.7,30.17,SW,232,0.0,0.0,63,0.00,,---,0.00,VWS V14.01,2013-11-15 09:55:00,
2013-11-15 05:00:00,31.7,20.9,30.17,SW,232,0.0,0.0,64,0.00,,---,0.00,VWS V14.01,2013-11-15 10:00:00,
2013-11-15 05:05:00,31.5,20.7,30.17,SW,232,0.0,1.0,64,0.00,,---,0.00,VWS V14.01,2013-11-15 10:05:00,
2013-11-15 05:10:00,31.6,20.8,30.17,SW,232,0.0,2.0,64,0.00,,---,0.00,VWS V14.01,2013-11-15 10:10:00,
2013-11-15 05:20:00,31.9,20.8,30.18,SW,232,0.0,1.0,63,0.00,,---,0.00,VWS V14.01,2013-11-15 10:20:00,
2013-11-15 05:25:00,32.0,20.9,30.18,SW,232,0.0,0.0,63,0.00,,---,0.00,VWS V14.01,2013-11-15 10:25:00,
2013-11-15 05:30:00,31.9,20.8,30.17,SW,232,0.0,0.0,63,0.00,,---,0.00,VWS V14.01,2013-11-15 10:30:00,
2013-11-15 05:35:00,31.7,21.3,30.18,SW,232,0.0,1.0,65,0.00,,---,0.00,VWS V14.01,2013-11-15 10:35:00,
2013-11-15 05:40:00,31.6,21.2,30.18,SW,232,0.0,1.0,65,0.00,,---,0.00,VWS V14.01,2013-11-15 10:40:00,
2013-11-15 05:45:00,31.5,21.5,30.18,SW,232,0.0,1.0,66,0.00,,---,0.00,VWS V14.01,2013-11-15 10:45:00,
2013-11-15 05:50:00,31.3,20.9,30.18,SW,232,0.0,0.0,65,0.00,,---,0.00,VWS V14.01,2013-11-15 10:50:00,
2013-11-15 05:55:00,31.4,20.6,30.18,West,259,0.0,3.0,64,0.00,,---,0.00,VWS V14.01,2013-11-15 10:55:00,
2013-11-15 06:00:00,31.4,20.3,30.18,West,259,0.0,0.0,63,0.00,,---,0.00,VWS V14.01,2013-11-15 11:00:00,
2013-11-15 06:05:00,31.4,20.3,30.18,West,259,0.0,0.0,63,0.00,,---,0.00,VWS V14.01,2013-11-15 11:05:00,
2013-11-15 06:10:00,31.4,20.6,30.19,West,259,0.0,0.0,64,0.00,,---,0.00,VWS V14.01,2013-11-15 11:10:00,
2013-11-15 06:15:00,31.3,20.5,30.19,West,259,0.0,0.0,64,0.00,,---,0.00,VWS V14.01,2013-11-15 11:15:00,
2013-11-15 06:20:00,31.2,20.5,30.19,West,259,0.0,0.0,64,0.00,,---,0.00,VWS V14.01,2013-11-15 11:20:00,
2013-11-15 06:25:00,31.2,20.5,30.19,West,259,0.0,0.0,64,0.00,,---,0.00,VWS V14.01,2013-11-15 11:25:00,
2013-11-15 06:30:00,31.2,20.5,30.20,West,259,0.0,1.0,64,0.00,,---,0.00,VWS V14.01,2013-11-15 11:30:00,
2013-11-15 06:40:00,31.1,20.4,30.20,West,259,0.0,0.0,64,0.00,,---,0.00,VWS V14.01,2013-11-15 11:40:00,
2013-11-15 06:45:00,30.9,19.8,30.20,West,259,0.0,0.0,63,0.00,,---,0.00,VWS V14.01,2013-11-15 11:45:00,
2013-11-15 06:50:00,30.8,20.1,30.20,West,259,0.0,0.0,64,0.00,,---,0.00,VWS V14.01,2013-11-15 11:50:00,
2013-11-15 06:55:00,30.8,20.1,30.20,West,259,0.0,0.0,64,0.00,,---,0.00,VWS V14.01,2013-11-15 11:55:00,
2013-11-15 07:00:00,30.9,19.8,30.20,West,259,0.0,1.0,63,0.00,,---,0.00,VWS V14.01,2013-11-15 12:00:00,
2013-11-15 07:05:00,31.3,20.2,30.20,South,175,0.0,2.0,63,0.00,,---,0.00,VWS V14.01,2013-11-15 12:05:00,
2013-11-15 07:10:00,32.0,19.7,30.21,NNW,327,0.0,2.0,60,0.00,,---,0.00,VWS V14.01,2013-11-15 12:10:00,
2013-11-15 07:15:00,32.5,20.6,30.20,NNW,327,0.0,0.0,61,0.00,,---,0.00,VWS V14.01,2013-11-15 12:15:00,
2013-11-15 07:20:00,32.6,20.3,30.21,NNW,327,0.0,0.0,60,0.00,,---,0.00,VWS V14.01,2013-11-15 12:20:00,
2013-11-15 07:25:00,32.8,20.1,30.20,South,183,0.0,1.0,59,0.00,,---,0.00,VWS V14.01,2013-11-15 12:25:00,
2013-11-15 07:30:00,33.4,19.8,30.20,WSW,242,0.0,2.0,57,0.00,,---,0.00,VWS V14.01,2013-11-15 12:30:00,
2013-11-15 07:35:00,34.1,20.9,30.20,SSE,166,0.0,2.0,58,0.00,,---,0.00,VWS V14.01,2013-11-15 12:35:00,
2013-11-15 07:40:00,34.6,21.0,30.20,SSE,159,0.0,1.0,57,0.00,,---,0.00,VWS V14.01,2013-11-15 12:40:00,
2013-11-15 07:50:00,35.7,19.4,30.20,SSW,196,0.0,4.0,51,0.00,,---,0.00,VWS V14.01,2013-11-15 12:50:00,
2013-11-15 07:55:00,36.6,19.7,30.20,West,262,0.0,3.0,50,0.00,,---,0.00,VWS V14.01,2013-11-15 12:55:00,
2013-11-15 08:00:00,37.5,19.6,30.20,WNW,287,0.0,3.0,48,0.00,,---,0.00,VWS V14.01,2013-11-15 13:00:00,
2013-11-15 08:05:00,38.3,19.9,30.21,SW,221,1.0,4.0,47,0.00,,---,0.00,VWS V14.01,2013-11-15 13:05:00,
2013-11-15 08:10:00,38.9,19.9,30.20,South,185,2.0,5.0,46,0.00,,---,0.00,VWS V14.01,2013-11-15 13:10:00,
2013-11-15 08:15:00,39.4,20.4,30.21,SW,235,0.0,4.0,46,0.00,,---,0.00,VWS V14.01,2013-11-15 13:15:00,
2013-11-15 08:20:00,39.9,19.8,30.20,South,184,1.0,5.0,44,0.00,,---,0.00,VWS V14.01,2013-11-15 13:20:00,
2013-11-15 08:30:00,40.6,19.3,30.20,South,177,0.0,4.0,42,0.00,,---,0.00,VWS V14.01,2013-11-15 13:30:00,
2013-11-15 08:35:00,41.0,19.1,30.21,SW,225,0.0,4.0,41,0.00,,---,0.00,VWS V14.01,2013-11-15 13:35:00,
2013-11-15 08:45:00,41.8,19.8,30.20,SSW,200,1.0,6.0,41,0.00,,---,0.00,VWS V14.01,2013-11-15 13:45:00,
2013-11-15 08:50:00,42.3,19.7,30.20,North,353,0.0,3.0,40,0.00,,---,0.00,VWS V14.01,2013-11-15 13:50:00,
2013-11-15 08:55:00,42.7,20.1,30.20,West,275,0.0,2.0,40,0.00,,---,0.00,VWS V14.01,2013-11-15 13:55:00,
2013-11-15 09:05:00,43.6,19.7,30.20,South,178,0.0,1.0,38,0.00,,---,0.00,VWS V14.01,2013-11-15 14:05:00,
2013-11-15 09:10:00,44.2,20.2,30.20,South,178,1.0,2.0,38,0.00,,---,0.00,VWS V14.01,2013-11-15 14:10:00,
2013-11-15 09:15:00,45.0,20.9,30.20,NW,304,0.0,3.0,38,0.00,,---,0.00,VWS V14.01,2013-11-15 14:15:00,
2013-11-15 09:25:00,46.1,20.6,30.20,West,260,0.0,2.0,36,0.00,,---,0.00,VWS V14.01,2013-11-15 14:25:00,
2013-11-15 09:30:00,46.5,21.0,30.20,SW,222,0.0,2.0,36,0.00,,---,0.00,VWS V14.01,2013-11-15 14:30:00,
2013-11-15 09:35:00,47.0,21.5,30.20,SW,219,0.0,4.0,36,0.00,,---,0.00,VWS V14.01,2013-11-15 14:35:00,
2013-11-15 09:40:00,47.4,20.5,30.20,SSW,194,0.0,6.0,34,0.00,,---,0.00,VWS V14.01,2013-11-15 14:40:00,
2013-11-15 09:45:00,47.9,20.2,30.20,SW,231,5.0,7.0,33,0.00,,---,0.00,VWS V14.01,2013-11-15 14:45:00,
2013-11-15 09:50:00,48.7,20.9,30.20,South,187,0.0,6.0,33,0.00,,---,0.00,VWS V14.01,2013-11-15 14:50:00,
2013-11-15 09:55:00,49.3,20.0,30.20,SW,229,1.0,6.0,31,0.00,,---,0.00,VWS V14.01,2013-11-15 14:55:00,
2013-11-15 10:00:00,49.9,19.7,30.20,WSW,246,0.0,4.0,30,0.00,,---,0.00,VWS V14.01,2013-11-15 15:00:00,
2013-11-15 10:05:00,50.6,19.5,30.20,SW,223,0.0,5.0,29,0.00,,---,0.00,VWS V14.01,2013-11-15 15:05:00,
2013-11-15 10:10:00,51.3,20.9,30.20,NNW,341,2.0,5.0,30,0.00,,---,0.00,VWS V14.01,2013-11-15 15:10:00,
2013-11-15 10:15:00,51.5,19.5,30.20,North,11,1.0,7.0,28,0.00,,---,0.00,VWS V14.01,2013-11-15 15:15:00,
2013-11-15 10:20:00,51.7,21.3,30.20,WNW,298,1.0,7.0,30,0.00,,---,0.00,VWS V14.01,2013-11-15 15:20:00,
2013-11-15 10:25:00,52.1,20.0,30.20,NNW,341,3.0,10.0,28,0.00,,---,0.00,VWS V14.01,2013-11-15 15:25:00,
2013-11-15 10:30:00,52.3,20.2,30.19,West,275,3.0,5.0,28,0.00,,---,0.00,VWS V14.01,2013-11-15 15:30:00,
2013-11-15 10:35:00,52.6,19.6,30.19,WNW,290,0.0,6.0,27,0.00,,---,0.00,VWS V14.01,2013-11-15 15:35:00,
2013-11-15 10:45:00,53.2,21.0,30.19,West,279,2.0,4.0,28,0.00,,---,0.00,VWS V14.01,2013-11-15 15:45:00,
2013-11-15 10:50:00,53.5,20.4,30.19,NW,310,0.0,7.0,27,0.00,,---,0.00,VWS V14.01,2013-11-15 15:50:00,
2013-11-15 10:55:00,53.6,20.5,30.19,NW,325,0.0,3.0,27,0.00,,---,0.00,VWS V14.01,2013-11-15 15:55:00,
2013-11-15 11:00:00,53.8,20.6,30.19,WSW,254,0.0,6.0,27,0.00,,---,0.00,VWS V14.01,2013-11-15 16:00:00,
2013-11-15 11:05:00,53.9,21.6,30.18,SW,229,0.0,6.0,28,0.00,,---,0.00,VWS V14.01,2013-11-15 16:05:00,
2013-11-15 11:10:00,54.1,22.6,30.18,West,274,0.0,4.0,29,0.00,,---,0.00,VWS V14.01,2013-11-15 16:10:00,
2013-11-15 11:15:00,54.5,20.3,30.18,ENE,63,2.0,5.0,26,0.00,,---,0.00,VWS V14.01,2013-11-15 16:15:00,
2013-11-15 11:20:00,54.9,22.4,30.18,WSW,237,5.0,6.0,28,0.00,,---,0.00,VWS V14.01,2013-11-15 16:20:00,
2013-11-15 11:25:00,55.1,19.9,30.17,SSE,150,3.0,11.0,25,0.00,,---,0.00,VWS V14.01,2013-11-15 16:25:00,
2013-11-15 11:30:00,55.1,19.9,30.17,WNW,285,0.0,9.0,25,0.00,,---,0.00,VWS V14.01,2013-11-15 16:30:00,
2013-11-15 11:35:00,55.5,21.2,30.17,South,169,5.0,5.0,26,0.00,,---,0.00,VWS V14.01,2013-11-15 16:35:00,
2013-11-15 11:40:00,56.0,20.7,30.17,WSW,241,2.0,10.0,25,0.00,,---,0.00,VWS V14.01,2013-11-15 16:40:00,
2013-11-15 11:45:00,56.4,22.0,30.17,North,356,0.0,6.0,26,0.00,,---,0.00,VWS V14.01,2013-11-15 16:45:00,
2013-11-15 11:50:00,56.6,20.2,30.16,WSW,248,2.0,5.0,24,0.00,,---,0.00,VWS V14.01,2013-11-15 16:50:00,
2013-11-15 11:55:00,56.8,19.4,30.16,WSW,242,3.0,5.0,23,0.00,,---,0.00,VWS V14.01,2013-11-15 16:55:00,
2013-11-15 12:00:00,57.2,19.8,30.16,West,267,7.0,7.0,23,0.00,,---,0.00,VWS V14.01,2013-11-15 17:00:00,
2013-11-15 12:05:00,57.7,21.2,30.16,SW,217,1.0,8.0,24,0.00,,---,0.00,VWS V14.01,2013-11-15 17:05:00,
2013-11-15 12:10:00,58.1,21.5,30.15,NW,315,1.0,5.0,24,0.00,,---,0.00,VWS V14.01,2013-11-15 17:10:00,
2013-11-15 12:15:00,58.3,19.6,30.15,SSW,198,3.0,5.0,22,0.00,,---,0.00,VWS V14.01,2013-11-15 17:15:00,
2013-11-15 12:20:00,58.4,19.7,30.15,West,275,6.0,7.0,22,0.00,,---,0.00,VWS V14.01,2013-11-15 17:20:00,
2013-11-15 12:25:00,58.8,20.1,30.15,SSW,206,5.0,6.0,22,0.00,,---,0.00,VWS V14.01,2013-11-15 17:25:00,
2013-11-15 12:30:00,59.2,19.3,30.14,WSW,246,1.0,6.0,21,0.00,,---,0.00,VWS V14.01,2013-11-15 17:30:00,
2013-11-15 12:35:00,59.6,21.8,30.14,WNW,282,3.0,7.0,23,0.00,,---,0.00,VWS V14.01,2013-11-15 17:35:00,
2013-11-15 12:40:00,59.8,22.0,30.14,NNW,327,1.0,5.0,23,0.00,,---,0.00,VWS V14.01,2013-11-15 17:40:00,
2013-11-15 12:45:00,60.0,22.1,30.14,SSE,153,1.0,4.0,23,0.00,,---,0.00,VWS V14.01,2013-11-15 17:45:00,
2013-11-15 12:50:00,59.9,21.0,30.14,South,171,3.0,9.0,22,0.00,,---,0.00,VWS V14.01,2013-11-15 17:50:00,
2013-11-15 12:55:00,59.7,20.8,30.14,West,273,1.0,10.0,22,0.00,,---,0.00,VWS V14.01,2013-11-15 17:55:00,
2013-11-15 13:05:00,59.6,23.8,30.13,WNW,299,3.0,5.0,25,0.00,,---,0.00,VWS V14.01,2013-11-15 18:05:00,
2013-11-15 13:10:00,60.0,20.0,30.13,North,4,3.0,10.0,21,0.00,,---,0.00,VWS V14.01,2013-11-15 18:10:00,
2013-11-15 13:15:00,60.1,20.1,30.13,NW,321,1.0,11.0,21,0.00,,---,0.00,VWS V14.01,2013-11-15 18:15:00,
2013-11-15 13:20:00,60.2,20.1,30.13,WNW,298,5.0,6.0,21,0.00,,---,0.00,VWS V14.01,2013-11-15 18:20:00,
2013-11-15 13:25:00,60.4,19.2,30.13,NNW,327,4.0,7.0,20,0.00,,---,0.00,VWS V14.01,2013-11-15 18:25:00,
2013-11-15 13:30:00,60.6,19.3,30.12,SSW,206,3.0,7.0,20,0.00,,---,0.00,VWS V14.01,2013-11-15 18:30:00,
2013-11-15 13:35:00,60.9,19.6,30.12,East,100,2.0,5.0,20,0.00,,---,0.00,VWS V14.01,2013-11-15 18:35:00,
2013-11-15 13:40:00,61.1,18.5,30.12,NE,45,2.0,12.0,19,0.00,,---,0.00,VWS V14.01,2013-11-15 18:40:00,
2013-11-15 13:50:00,61.4,18.8,30.12,SSW,192,1.0,6.0,19,0.00,,---,0.00,VWS V14.01,2013-11-15 18:50:00,
2013-11-15 13:55:00,61.7,20.2,30.12,NW,314,0.0,5.0,20,0.00,,---,0.00,VWS V14.01,2013-11-15 18:55:00,
2013-11-15 14:00:00,61.8,20.3,30.11,West,265,0.0,4.0,20,0.00,,---,0.00,VWS V14.01,2013-11-15 19:00:00,
2013-11-15 14:05:00,61.5,21.2,30.11,SSW,200,3.0,4.0,21,0.00,,---,0.00,VWS V14.01,2013-11-15 19:05:00,
2013-11-15 14:10:00,61.2,21.0,30.12,West,267,0.0,4.0,21,0.00,,---,0.00,VWS V14.01,2013-11-15 19:10:00,
2013-11-15 14:15:00,60.8,20.6,30.12,SSW,198,5.0,6.0,21,0.00,,---,0.00,VWS V14.01,2013-11-15 19:15:00,
2013-11-15 14:20:00,60.6,21.6,30.12,SW,229,0.0,5.0,22,0.00,,---,0.00,VWS V14.01,2013-11-15 19:20:00,
2013-11-15 14:25:00,60.4,21.4,30.12,South,178,1.0,6.0,22,0.00,,---,0.00,VWS V14.01,2013-11-15 19:25:00,
2013-11-15 14:30:00,60.2,22.3,30.11,SW,227,1.0,6.0,23,0.00,,---,0.00,VWS V14.01,2013-11-15 19:30:00,
2013-11-15 14:35:00,60.1,22.2,30.11,SE,128,0.0,4.0,23,0.00,,---,0.00,VWS V14.01,2013-11-15 19:35:00,
2013-11-15 14:40:00,60.0,22.1,30.11,SE,142,1.0,6.0,23,0.00,,---,0.00,VWS V14.01,2013-11-15 19:40:00,
2013-11-15 14:45:00,59.9,25.0,30.11,NNE,17,3.0,5.0,26,0.00,,---,0.00,VWS V14.01,2013-11-15 19:45:00,
2013-11-15 14:50:00,59.7,23.9,30.11,SW,225,1.0,5.0,25,0.00,,---,0.00,VWS V14.01,2013-11-15 19:50:00,
2013-11-15 14:55:00,59.7,23.9,30.12,West,274,1.0,3.0,25,0.00,,---,0.00,VWS V14.01,2013-11-15 19:55:00,
2013-11-15 15:00:00,59.7,23.9,30.11,South,181,1.0,6.0,25,0.00,,---,0.00,VWS V14.01,2013-11-15 20:00:00,
2013-11-15 15:05:00,59.7,24.8,30.11,West,266,3.0,3.0,26,0.00,,---,0.00,VWS V14.01,2013-11-15 20:05:00,
2013-11-15 15:10:00,59.6,23.8,30.11,WNW,286,0.0,4.0,25,0.00,,---,0.00,VWS V14.01,2013-11-15 20:10:00,
2013-11-15 15:15:00,59.6,23.8,30.11,SE,143,3.0,4.0,25,0.00,,---,0.00,VWS V14.01,2013-11-15 20:15:00,
2013-11-15 15:20:00,59.5,24.6,30.11,SSW,207,0.0,4.0,26,0.00,,---,0.00,VWS V14.01,2013-11-15 20:20:00,
2013-11-15 15:25:00,59.4,25.4,30.12,ESE,121,0.0,4.0,27,0.00,,---,0.00,VWS V14.01,2013-11-15 20:25:00,
2013-11-15 15:30:00,59.3,25.4,30.12,NNE,12,1.0,4.0,27,0.00,,---,0.00,VWS V14.01,2013-11-15 20:30:00,
2013-11-15 15:35:00,59.2,26.1,30.12,South,170,0.0,4.0,28,0.00,,---,0.00,VWS V14.01,2013-11-15 20:35:00,
2013-11-15 15:40:00,58.8,25.8,30.12,NW,314,0.0,5.0,28,0.00,,---,0.00,VWS V14.01,2013-11-15 20:40:00,
2013-11-15 15:45:00,58.7,25.7,30.12,SSE,155,0.0,3.0,28,0.00,,---,0.00,VWS V14.01,2013-11-15 20:45:00,
2013-11-15 15:50:00,58.5,27.2,30.12,SSW,213,0.0,3.0,30,0.00,,---,0.00,VWS V14.01,2013-11-15 20:50:00,
2013-11-15 15:55:00,58.3,27.8,30.13,SSW,200,0.0,3.0,31,0.00,,---,0.00,VWS V14.01,2013-11-15 20:55:00,
2013-11-15 16:00:00,58.0,26.8,30.12,WNW,289,6.0,11.0,30,0.00,,---,0.00,VWS V14.01,2013-11-15 21:00:00,
2013-11-15 16:10:00,58.0,26.8,30.12,SE,137,0.0,7.0,30,0.00,,---,0.00,VWS V14.01,2013-11-15 21:10:00,
2013-11-15 16:15:00,57.7,26.5,30.12,SE,134,0.0,3.0,30,0.00,,---,0.00,VWS V14.01,2013-11-15 21:15:00,
2013-11-15 16:20:00,57.3,27.0,30.12,SE,134,0.0,1.0,31,0.00,,---,0.00,VWS V14.01,2013-11-15 21:20:00,
2013-11-15 16:25:00,57.2,26.9,30.12,SSW,210,0.0,4.0,31,0.00,,---,0.00,VWS V14.01,2013-11-15 21:25:00,
2013-11-15 16:30:00,57.0,26.7,30.12,South,180,0.0,1.0,31,0.00,,---,0.00,VWS V14.01,2013-11-15 21:30:00,
2013-11-15 16:35:00,56.7,26.4,30.13,South,185,0.0,5.0,31,0.00,,---,0.00,VWS V14.01,2013-11-15 21:35:00,
2013-11-15 16:40:00,56.6,26.3,30.12,SSW,199,1.0,6.0,31,0.00,,---,0.00,VWS V14.01,2013-11-15 21:40:00,
2013-11-15 16:45:00,56.6,26.3,30.12,SE,125,0.0,4.0,31,0.00,,---,0.00,VWS V14.01,2013-11-15 21:45:00,
2013-11-15 16:50:00,56.3,26.1,30.13,WNW,289,0.0,3.0,31,0.00,,---,0.00,VWS V14.01,2013-11-15 21:50:00,
2013-11-15 16:55:00,56.1,25.9,30.13,West,277,4.0,7.0,31,0.00,,---,0.00,VWS V14.01,2013-11-15 21:55:00,
2013-11-15 17:00:00,56.1,25.9,30.13,WSW,237,0.0,5.0,31,0.00,,---,0.00,VWS V14.01,2013-11-15 22:00:00,
2013-11-15 17:05:00,55.9,26.5,30.13,SSW,196,0.0,5.0,32,0.00,,---,0.00,VWS V14.01,2013-11-15 22:05:00,
2013-11-15 17:10:00,55.6,27.0,30.14,SSW,201,0.0,1.0,33,0.00,,---,0.00,VWS V14.01,2013-11-15 22:10:00,
2013-11-15 17:15:00,55.1,26.5,30.13,SW,235,1.0,2.0,33,0.00,,---,0.00,VWS V14.01,2013-11-15 22:15:00,
2013-11-15 17:20:00,54.7,26.2,30.14,ESE,114,0.0,1.0,33,0.00,,---,0.00,VWS V14.01,2013-11-15 22:20:00,
2013-11-15 17:25:00,54.2,26.5,30.14,ESE,114,0.0,1.0,34,0.00,,---,0.00,VWS V14.01,2013-11-15 22:25:00,
2013-11-15 17:35:00,53.9,25.5,30.14,WNW,302,2.0,5.0,33,0.00,,---,0.00,VWS V14.01,2013-11-15 22:35:00,
2013-11-15 17:40:00,54.0,25.6,30.15,SSE,164,0.0,2.0,33,0.00,,---,0.00,VWS V14.01,2013-11-15 22:40:00,
2013-11-15 17:45:00,54.0,24.1,30.15,SSW,196,0.0,7.0,31,0.00,,---,0.00,VWS V14.01,2013-11-15 22:45:00,
2013-11-15 17:50:00,54.1,24.2,30.15,SE,130,2.0,8.0,31,0.00,,---,0.00,VWS V14.01,2013-11-15 22:50:00,
2013-11-15 17:55:00,54.0,24.1,30.15,NNE,25,1.0,4.0,31,0.00,,---,0.00,VWS V14.01,2013-11-15 22:55:00,
2013-11-15 18:00:00,53.9,24.0,30.16,South,189,0.0,5.0,31,0.00,,---,0.00,VWS V14.01,2013-11-15 23:00:00,
2013-11-15 18:05:00,53.6,24.5,30.16,South,189,0.0,2.0,32,0.00,,---,0.00,VWS V14.01,2013-11-15 23:05:00,
2013-11-15 18:10:00,53.0,25.4,30.16,South,189,0.0,2.0,34,0.00,,---,0.00,VWS V14.01,2013-11-15 23:10:00,
2013-11-15 18:15:00,52.4,25.6,30.16,West,271,0.0,7.0,35,0.00,,---,0.00,VWS V14.01,2013-11-15 23:15:00,
2013-11-15 18:20:00,52.1,25.3,30.16,SSE,154,0.0,4.0,35,0.00,,---,0.00,VWS V14.01,2013-11-15 23:20:00,
2013-11-15 18:25:00,52.0,25.2,30.16,West,273,0.0,2.0,35,0.00,,---,0.00,VWS V14.01,2013-11-15 23:25:00,
2013-11-15 18:30:00,51.7,25.6,30.17,South,187,0.0,2.0,36,0.00,,---,0.00,VWS V14.01,2013-11-15 23:30:00,
2013-11-15 18:40:00,50.7,26.0,30.16,South,187,0.0,1.0,38,0.00,,---,0.00,VWS V14.01,2013-11-15 23:40:00,
2013-11-15 18:45:00,50.1,26.7,30.16,South,187,0.0,1.0,40,0.00,,---,0.00,VWS V14.01,2013-11-15 23:45:00,
2013-11-15 18:55:00,49.2,27.1,30.16,South,187,0.0,2.0,42,0.00,,---,0.00,VWS V14.01,2013-11-15 23:55:00,
2013-11-15 19:00:00,48.8,27.3,30.16,South,187,0.0,1.0,43,0.00,,---,0.00,VWS V14.01,2013-11-16 00:00:00,
2013-11-15 19:05:00,48.7,27.8,30.16,ESE,123,0.0,3.0,44,0.00,,---,0.00,VWS V14.01,2013-11-16 00:05:00,
2013-11-15 19:10:00,48.5,28.1,30.16,SE,124,0.0,2.0,45,0.00,,---,0.00,VWS V14.01,2013-11-16 00:10:00,
2013-11-15 19:15:00,48.0,28.2,30.16,SE,124,0.0,1.0,46,0.00,,---,0.00,VWS V14.01,2013-11-16 00:15:00,
2013-11-15 19:20:00,47.6,28.9,30.17,West,259,0.0,1.0,48,0.00,,---,0.00,VWS V14.01,2013-11-16 00:20:00,
2013-11-15 19:25:00,47.1,28.9,30.17,West,259,0.0,1.0,49,0.00,,---,0.00,VWS V14.01,2013-11-16 00:25:00,
2013-11-15 19:30:00,46.3,28.7,30.17,West,259,0.0,0.0,50,0.00,,---,0.00,VWS V14.01,2013-11-16 00:30:00,
2013-11-15 19:35:00,45.6,29.0,30.17,West,259,0.0,0.0,52,0.00,,---,0.00,VWS V14.01,2013-11-16 00:35:00,
2013-11-15 19:40:00,45.1,29.0,30.17,West,259,0.0,1.0,53,0.00,,---,0.00,VWS V14.01,2013-11-16 00:40:00,
2013-11-15 19:45:00,44.7,30.0,30.17,West,259,0.0,1.0,56,0.00,,---,0.00,VWS V14.01,2013-11-16 00:45:00,
2013-11-15 19:50:00,44.2,29.5,30.17,West,259,0.0,1.0,56,0.00,,---,0.00,VWS V14.01,2013-11-16 00:50:00,
2013-11-15 19:55:00,43.7,29.5,30.17,West,259,0.0,0.0,57,0.00,,---,0.00,VWS V14.01,2013-11-16 00:55:00,
2013-11-15 20:00:00,43.2,29.9,30.18,West,259,0.0,0.0,59,0.00,,---,0.00,VWS V14.01,2013-11-16 01:00:00,
2013-11-15 20:05:00,42.7,29.8,30.17,West,259,0.0,0.0,60,0.00,,---,0.00,VWS V14.01,2013-11-16 01:05:00,
2013-11-15 20:10:00,42.2,29.7,30.17,West,259,0.0,0.0,61,0.00,,---,0.00,VWS V14.01,2013-11-16 01:10:00,
2013-11-15 20:20:00,41.3,29.7,30.17,West,259,0.0,0.0,63,0.00,,---,0.00,VWS V14.01,2013-11-16 01:20:00,
2013-11-15 20:25:00,40.9,29.7,30.18,West,259,0.0,0.0,64,0.00,,---,0.00,VWS V14.01,2013-11-16 01:25:00,
2013-11-15 20:35:00,40.4,30.0,30.18,West,259,0.0,0.0,66,0.00,,---,0.00,VWS V14.01,2013-11-16 01:35:00,
2013-11-15 20:40:00,40.2,30.1,30.18,West,259,0.0,0.0,67,0.00,,---,0.00,VWS V14.01,2013-11-16 01:40:00,
2013-11-15 20:45:00,40.1,30.0,30.18,West,259,0.0,0.0,67,0.00,,---,0.00,VWS V14.01,2013-11-16 01:45:00,
2013-11-15 20:50:00,40.1,30.8,30.18,West,259,0.0,1.0,69,0.00,,---,0.00,VWS V14.01,2013-11-16 01:50:00,
2013-11-15 20:55:00,40.4,30.7,30.18,West,259,0.0,1.0,68,0.00,,---,0.00,VWS V14.01,2013-11-16 01:55:00,
2013-11-15 21:00:00,40.5,30.8,30.18,West,259,0.0,0.0,68,0.00,,---,0.00,VWS V14.01,2013-11-16 02:00:00,
2013-11-15 21:05:00,40.5,30.8,30.18,West,259,0.0,0.0,68,0.00,,---,0.00,VWS V14.01,2013-11-16 02:05:00,
2013-11-15 21:10:00,40.5,30.8,30.18,West,259,0.0,0.0,68,0.00,,---,0.00,VWS V14.01,2013-11-16 02:10:00,
2013-11-15 21:15:00,40.9,31.5,30.18,West,259,0.0,1.0,69,0.00,,---,0.00,VWS V14.01,2013-11-16 02:15:00,
2013-11-15 21:20:00,41.1,31.7,30.18,South,185,0.0,2.0,69,0.00,,---,0.00,VWS V14.01,2013-11-16 02:20:00,
2013-11-15 21:25:00,41.7,31.9,30.18,South,185,0.0,1.0,68,0.00,,---,0.00,VWS V14.01,2013-11-16 02:25:00,
2013-11-15 21:30:00,41.7,31.6,30.18,South,185,0.0,0.0,67,0.00,,---,0.00,VWS V14.01,2013-11-16 02:30:00,
2013-11-15 21:35:00,41.8,32.0,30.18,South,185,0.0,0.0,68,0.00,,---,0.00,VWS V14.01,2013-11-16 02:35:00,
2013-11-15 21:40:00,41.7,31.9,30.18,South,185,0.0,2.0,68,0.00,,---,0.00,VWS V14.01,2013-11-16 02:40:00,
2013-11-15 21:45:00,41.8,32.0,30.18,South,185,0.0,1.0,68,0.00,,---,0.00,VWS V14.01,2013-11-16 02:45:00,
2013-11-15 21:50:00,42.1,32.3,30.18,SW,214,0.0,1.0,68,0.00,,---,0.00,VWS V14.01,2013-11-16 02:50:00,
2013-11-15 21:55:00,42.5,32.7,30.18,SW,214,0.0,2.0,68,0.00,,---,0.00,VWS V14.01,2013-11-16 02:55:00,
2013-11-15 22:00:00,42.8,33.0,30.18,SW,214,0.0,1.0,68,0.00,,---,0.00,VWS V14.01,2013-11-16 03:00:00,
2013-11-15 22:05:00,43.1,32.9,30.17,WSW,239,0.0,2.0,67,0.00,,---,0.00,VWS V14.01,2013-11-16 03:05:00,
2013-11-15 22:10:00,43.3,33.1,30.17,West,266,0.0,2.0,67,0.00,,---,0.00,VWS V14.01,2013-11-16 03:10:00,
2013-11-15 22:15:00,43.4,33.2,30.17,West,266,0.0,0.0,67,0.00,,---,0.00,VWS V14.01,2013-11-16 03:15:00,
2013-11-15 22:20:00,43.4,33.2,30.17,West,266,0.0,0.0,67,0.00,,---,0.00,VWS V14.01,2013-11-16 03:20:00,
2013-11-15 22:25:00,43.2,33.0,30.17,West,266,1.0,1.0,67,0.00,,---,0.00,VWS V14.01,2013-11-16 03:25:00,
2013-11-15 22:30:00,43.1,33.3,30.17,West,266,0.0,1.0,68,0.00,,---,0.00,VWS V14.01,2013-11-16 03:30:00,
2013-11-15 22:35:00,42.9,33.1,30.17,West,259,0.0,1.0,68,0.00,,---,0.00,VWS V14.01,2013-11-16 03:35:00,
2013-11-15 22:40:00,43.1,33.3,30.18,SSE,168,1.0,2.0,68,0.00,,---,0.00,VWS V14.01,2013-11-16 03:40:00,
2013-11-15 22:45:00,43.3,33.5,30.18,West,269,0.0,1.0,68,0.00,,---,0.00,VWS V14.01,2013-11-16 03:45:00,
2013-11-15 22:55:00,43.3,33.5,30.18,West,269,0.0,1.0,68,0.00,,---,0.00,VWS V14.01,2013-11-16 03:55:00,
2013-11-15 23:00:00,43.3,33.5,30.18,West,269,0.0,0.0,68,0.00,,---,0.00,VWS V14.01,2013-11-16 04:00:00,
2013-11-15 23:05:00,43.3,33.5,30.18,SW,225,0.0,3.0,68,0.00,,---,0.00,VWS V14.01,2013-11-16 04:05:00,
2013-11-15 23:10:00,43.5,33.7,30.18,NNW,337,0.0,2.0,68,0.00,,---,0.00,VWS V14.01,2013-11-16 04:10:00,
2013-11-15 23:15:00,43.7,33.8,30.18,NNW,337,0.0,1.0,68,0.00,,---,0.00,VWS V14.01,2013-11-16 04:15:00,
2013-11-15 23:20:00,43.8,33.9,30.18,NNW,337,0.0,1.0,68,0.00,,---,0.00,VWS V14.01,2013-11-16 04:20:00,
2013-11-15 23:25:00,43.9,34.0,30.19,NNW,329,0.0,2.0,68,0.00,,---,0.00,VWS V14.01,2013-11-16 04:25:00,
2013-11-15 23:30:00,43.9,33.7,30.19,NNW,329,0.0,0.0,67,0.00,,---,0.00,VWS V14.01,2013-11-16 04:30:00,
2013-11-15 23:35:00,43.6,33.8,30.19,NNW,329,0.0,0.0,68,0.00,,---,0.00,VWS V14.01,2013-11-16 04:35:00,
2013-11-15 23:40:00,43.3,33.5,30.19,NNW,329,0.0,1.0,68,0.00,,---,0.00,VWS V14.01,2013-11-16 04:40:00,
2013-11-15 23:45:00,43.1,33.6,30.19,NNW,329,0.0,0.0,69,0.00,,---,0.00,VWS V14.01,2013-11-16 04:45:00,
2013-11-15 23:50:00,42.7,33.6,30.19,NNW,329,0.0,0.0,70,0.00,,---,0.00,VWS V14.01,2013-11-16 04:50:00,
2013-11-15 23:55:00,42.3,33.2,30.19,NNW,329,0.0,0.0,70,0.00,,---,0.00,VWS V14.01,2013-11-16 04:55:00,